Time;durP1;ratioP1;P1;durP2;ratioP2;P2;SDS_P1;SDS_P2;PMS_P1;PMS_P2;Temp;Humidity;BMP_temperature;BMP_pressure;BME280_temperature;BME280_humidity;BME280_pressure;Samples;Min_cycle;Max_cycle;Signal;HPM_P1;HPM_P2
2021/10/07 00:00:10;;;;;;;21.50;15.18;;;13.70;99.90;;;;;;2079732;28;20389;-69
2021/10/07 00:01:11;;;;;;;14.45;12.93;;;13.70;99.90;;;;;;2079456;28;20022;-69
2021/10/07 00:02:11;;;;;;;17.23;15.50;;;13.70;99.90;;;;;;2079722;28;20075;-69
2021/10/07 00:03:12;;;;;;;16.88;15.15;;;13.70;99.90;;;;;;2088479;28;20067;-69
2021/10/07 00:04:12;;;;;;;18.50;15.02;;;13.70;99.90;;;;;;2086925;28;20044;-69
2021/10/07 00:05:13;;;;;;;19.08;15.75;;;13.70;99.90;;;;;;2083756;28;20098;-69
2021/10/07 00:06:13;;;;;;;16.23;13.80;;;13.70;99.90;;;;;;2086901;28;20033;-69
2021/10/07 00:07:15;;;;;;;17.45;14.32;;;13.70;99.90;;;;;;2089473;28;20021;-69
2021/10/07 00:08:15;;;;;;;17.63;15.80;;;13.70;99.90;;;;;;2088574;28;20025;-69
2021/10/07 00:09:16;;;;;;;15.15;12.90;;;13.70;99.90;;;;;;2089615;28;20096;-69
2021/10/07 00:10:16;;;;;;;18.38;14.77;;;13.70;99.90;;;;;;2089582;28;20056;-70
2021/10/07 00:11:17;;;;;;;15.43;13.88;;;13.70;99.90;;;;;;2081866;28;20083;-70
2021/10/07 00:12:17;;;;;;;12.90;11.57;;;13.70;99.90;;;;;;2080955;28;20112;-69
2021/10/07 00:13:18;;;;;;;14.90;13.35;;;13.70;99.90;;;;;;2081171;28;20060;-69
2021/10/07 00:14:19;;;;;;;13.65;11.40;;;13.70;99.90;;;;;;2086253;28;20070;-69
2021/10/07 00:15:19;;;;;;;16.63;13.75;;;13.70;99.90;;;;;;2086898;28;20396;-69
2021/10/07 00:16:20;;;;;;;16.75;14.80;;;13.70;99.90;;;;;;2080845;28;20142;-69
2021/10/07 00:17:20;;;;;;;15.65;13.93;;;13.60;99.90;;;;;;2081123;28;20037;-69
2021/10/07 00:18:21;;;;;;;16.30;13.98;;;13.60;99.90;;;;;;2080242;28;20104;-69
2021/10/07 00:19:22;;;;;;;17.95;16.10;;;13.60;99.90;;;;;;2085254;28;20487;-69
2021/10/07 00:20:22;;;;;;;14.27;12.88;;;13.60;99.90;;;;;;2086906;28;20224;-69
2021/10/07 00:21:23;;;;;;;14.18;11.30;;;13.60;99.90;;;;;;2081946;28;20025;-69
2021/10/07 00:22:24;;;;;;;59.40;15.10;;;13.60;99.90;;;;;;2085525;28;20033;-69
2021/10/07 00:23:26;;;;;;;26.42;13.98;;;13.60;99.90;;;;;;2089261;28;20486;-69
2021/10/07 00:24:27;;;;;;;14.00;12.70;;;13.50;99.90;;;;;;2085091;28;20079;-70
2021/10/07 00:25:28;;;;;;;14.70;13.30;;;13.50;99.90;;;;;;2085260;28;20029;-69
2021/10/07 00:26:29;;;;;;;15.15;13.57;;;13.50;99.90;;;;;;2084121;28;20031;-70
2021/10/07 00:27:29;;;;;;;12.70;11.40;;;13.50;99.90;;;;;;2082672;28;20595;-69
2021/10/07 00:28:32;;;;;;;16.20;14.55;;;13.50;99.90;;;;;;2080373;28;20481;-69
2021/10/07 00:29:39;;;;;;;12.38;11.18;;;13.40;99.90;;;;;;2081029;28;20017;-70
2021/10/07 00:30:41;;;;;;;15.05;12.65;;;13.40;99.90;;;;;;2086949;28;20033;-69
2021/10/07 00:31:44;;;;;;;14.68;12.52;;;13.40;99.90;;;;;;2087853;28;20135;-70
2021/10/07 00:33:08;;;;;;;14.15;12.63;;;13.40;99.90;;;;;;2081038;28;20432;-69
2021/10/07 00:37:02;;;;;;;14.32;12.82;;;13.30;99.90;;;;;;2083112;28;20029;-69
2021/10/07 00:39:23;;;;;;;13.88;12.25;;;13.30;99.90;;;;;;2085129;28;20025;-69
2021/10/07 00:40:23;;;;;;;12.43;11.13;;;13.20;99.90;;;;;;2082587;28;20025;-69
2021/10/07 00:41:24;;;;;;;14.00;12.52;;;13.30;99.90;;;;;;2080689;28;20025;-69
2021/10/07 00:42:24;;;;;;;14.10;12.60;;;13.30;99.90;;;;;;2081171;28;20013;-69
2021/10/07 00:43:25;;;;;;;13.55;12.25;;;13.30;99.90;;;;;;2080635;28;20024;-69
2021/10/07 00:44:31;;;;;;;13.82;12.25;;;13.30;99.90;;;;;;2081020;28;20413;-69
2021/10/07 00:45:31;;;;;;;14.70;13.18;;;13.30;99.90;;;;;;2086108;28;20048;-69
2021/10/07 00:46:43;;;;;;;18.75;14.93;;;13.30;99.90;;;;;;2086040;28;20783;-69
2021/10/07 00:47:44;;;;;;;17.70;13.85;;;13.30;99.90;;;;;;2080996;28;20421;-70
2021/10/07 00:48:44;;;;;;;14.60;13.20;;;13.30;99.90;;;;;;2080217;28;20029;-69
2021/10/07 00:49:45;;;;;;;14.52;13.05;;;13.30;99.90;;;;;;2080961;28;20137;-69
2021/10/07 00:50:46;;;;;;;16.98;15.27;;;13.30;99.90;;;;;;2080902;28;20110;-69
2021/10/07 00:51:47;;;;;;;16.20;13.85;;;13.30;99.90;;;;;;2080520;28;20022;-69
2021/10/07 00:52:48;;;;;;;17.98;13.07;;;13.30;99.90;;;;;;2080789;28;20112;-69
2021/10/07 00:53:48;;;;;;;16.20;14.50;;;13.40;99.90;;;;;;2080189;28;20025;-69
2021/10/07 00:54:52;;;;;;;14.52;12.90;;;13.30;99.90;;;;;;2081909;28;20031;-69
2021/10/07 00:55:53;;;;;;;15.80;14.18;;;13.40;99.90;;;;;;2088381;28;20029;-70
2021/10/07 00:56:56;;;;;;;15.27;13.70;;;13.40;99.90;;;;;;2088660;28;20017;-69
2021/10/07 00:57:57;;;;;;;14.55;12.95;;;13.30;99.90;;;;;;2084987;28;20029;-70
2021/10/07 00:58:57;;;;;;;14.40;12.52;;;13.40;99.90;;;;;;2083670;28;20081;-70
2021/10/07 00:59:58;;;;;;;14.85;13.45;;;13.40;99.90;;;;;;2081421;28;20079;-69
2021/10/07 01:00:58;;;;;;;16.35;14.73;;;13.40;99.90;;;;;;2080893;28;20068;-69
2021/10/07 01:02:04;;;;;;;17.35;14.82;;;13.40;99.90;;;;;;2080536;28;20128;-69
2021/10/07 01:03:04;;;;;;;16.02;14.25;;;13.40;99.90;;;;;;2081562;28;20034;-69
2021/10/07 01:04:05;;;;;;;16.05;14.40;;;13.40;99.90;;;;;;2087010;28;20525;-70
2021/10/07 01:05:06;;;;;;;15.88;13.52;;;13.40;99.90;;;;;;2080855;28;20100;-69
2021/10/07 01:06:07;;;;;;;17.90;16.05;;;13.40;99.90;;;;;;2080471;28;20068;-69
2021/10/07 01:07:08;;;;;;;17.15;15.35;;;13.40;99.90;;;;;;2080689;28;20481;-69
2021/10/07 01:08:09;;;;;;;18.15;15.52;;;13.40;99.90;;;;;;2080126;28;20441;-69
2021/10/07 01:09:10;;;;;;;16.02;13.52;;;13.40;99.90;;;;;;2080622;28;20067;-69
2021/10/07 01:10:11;;;;;;;18.98;16.15;;;13.40;99.90;;;;;;2080813;28;20442;-69
2021/10/07 01:11:14;;;;;;;16.52;13.15;;;13.40;99.90;;;;;;2080745;28;20112;-69
2021/10/07 01:12:14;;;;;;;16.40;14.70;;;13.40;99.90;;;;;;2082202;28;20125;-69
2021/10/07 01:13:15;;;;;;;14.10;12.50;;;13.40;99.90;;;;;;2088524;28;20040;-69
2021/10/07 01:14:36;;;;;;;17.42;14.98;;;13.40;99.90;;;;;;2085872;28;20029;-69
2021/10/07 01:15:36;;;;;;;13.80;12.40;;;13.40;99.90;;;;;;2086347;28;20056;-69
2021/10/07 01:16:37;;;;;;;18.98;14.20;;;13.40;99.90;;;;;;2079756;28;20033;-69
2021/10/07 01:17:37;;;;;;;16.13;14.50;;;13.40;99.90;;;;;;2084358;28;20265;-69
2021/10/07 01:18:38;;;;;;;15.80;14.23;;;13.40;99.90;;;;;;2086778;28;20040;-69
2021/10/07 01:19:40;;;;;;;18.00;15.75;;;13.40;99.90;;;;;;2079910;28;20489;-69
2021/10/07 01:20:41;;;;;;;22.58;16.30;;;13.40;99.90;;;;;;2080031;28;20041;-70
2021/10/07 01:21:42;;;;;;;17.35;15.50;;;13.40;99.90;;;;;;2080572;28;20100;-69
2021/10/07 01:22:42;;;;;;;15.10;13.65;;;13.40;99.90;;;;;;2079671;28;20060;-69
2021/10/07 01:23:45;;;;;;;14.52;12.82;;;13.40;99.90;;;;;;2080133;28;20046;-69
2021/10/07 01:24:46;;;;;;;16.55;14.75;;;13.40;99.90;;;;;;2080373;28;20425;-69
2021/10/07 01:25:47;;;;;;;18.17;15.15;;;13.40;99.90;;;;;;2083069;28;20021;-70
2021/10/07 01:26:47;;;;;;;15.00;13.52;;;13.40;99.90;;;;;;2087755;28;20175;-70
2021/10/07 01:27:56;;;;;;;16.60;14.93;;;13.40;99.90;;;;;;2080580;28;20393;-69
2021/10/07 01:28:56;;;;;;;15.63;14.02;;;13.40;99.90;;;;;;2079783;28;20026;-69
2021/10/07 01:30:04;;;;;;;17.50;15.63;;;13.40;99.90;;;;;;2081638;28;20086;-70
2021/10/07 01:31:07;;;;;;;17.52;14.82;;;13.30;99.90;;;;;;2080332;28;20045;-69
2021/10/07 01:32:09;;;;;;;17.80;15.13;;;13.30;99.90;;;;;;2080416;28;20033;-69
2021/10/07 01:33:09;;;;;;;16.83;15.02;;;13.30;99.90;;;;;;2080440;28;20033;-69
2021/10/07 01:34:10;;;;;;;18.38;14.60;;;13.30;99.90;;;;;;2081757;28;20052;-69
2021/10/07 01:35:11;;;;;;;23.15;19.63;;;13.30;99.90;;;;;;2082682;28;20029;-69
2021/10/07 01:36:12;;;;;;;22.17;19.38;;;13.30;99.90;;;;;;2084509;28;20529;-69
2021/10/07 01:37:12;;;;;;;23.05;19.15;;;13.30;99.90;;;;;;2083245;28;20363;-69
2021/10/07 01:38:13;;;;;;;20.83;17.23;;;13.30;99.90;;;;;;2087910;28;20074;-69
2021/10/07 01:39:13;;;;;;;19.45;17.17;;;13.30;99.90;;;;;;2088981;28;20040;-69
2021/10/07 01:40:15;;;;;;;20.60;18.40;;;13.30;99.90;;;;;;2081555;28;20412;-69
2021/10/07 01:41:16;;;;;;;22.15;19.17;;;13.30;99.90;;;;;;2080494;28;20083;-70
2021/10/07 01:42:17;;;;;;;23.10;20.60;;;13.30;99.90;;;;;;2080289;28;20029;-70
2021/10/07 01:43:17;;;;;;;23.63;19.70;;;13.20;99.90;;;;;;2080572;28;20018;-69
2021/10/07 01:44:20;;;;;;;23.25;20.75;;;13.30;99.90;;;;;;2080312;28;20029;-69
2021/10/07 01:45:22;;;;;;;19.38;17.13;;;13.20;99.90;;;;;;2081371;28;20101;-69
2021/10/07 01:46:23;;;;;;;20.85;18.52;;;13.20;99.90;;;;;;2080401;28;20018;-69
2021/10/07 01:47:23;;;;;;;22.63;19.50;;;13.20;99.90;;;;;;2079103;28;20028;-70
2021/10/07 01:48:24;;;;;;;22.05;18.83;;;13.20;99.90;;;;;;2087808;28;20028;-69
2021/10/07 01:49:26;;;;;;;21.63;19.33;;;13.20;99.90;;;;;;2088282;28;20440;-69
2021/10/07 01:50:26;;;;;;;19.50;17.45;;;13.20;99.90;;;;;;2081962;28;20026;-69
2021/10/07 01:51:27;;;;;;;20.13;18.13;;;13.20;99.90;;;;;;2083800;28;20035;-69
2021/10/07 01:52:28;;;;;;;19.63;16.85;;;13.20;99.90;;;;;;2088724;28;20028;-69
2021/10/07 01:53:28;;;;;;;17.80;16.08;;;13.20;99.90;;;;;;2088105;28;20025;-69
2021/10/07 01:54:29;;;;;;;20.55;17.52;;;13.10;99.90;;;;;;2088531;28;20376;-69
2021/10/07 01:55:30;;;;;;;20.20;18.10;;;13.10;99.90;;;;;;2087028;28;20025;-70
2021/10/07 01:56:31;;;;;;;18.10;16.13;;;13.10;99.90;;;;;;2083967;28;20030;-70
2021/10/07 01:57:31;;;;;;;17.85;15.95;;;13.10;99.90;;;;;;2085398;28;20111;-69
2021/10/07 01:58:32;;;;;;;15.77;14.10;;;13.00;99.90;;;;;;2079870;28;20381;-69
2021/10/07 01:59:32;;;;;;;19.60;17.17;;;13.00;99.90;;;;;;2083212;28;20036;-69
2021/10/07 02:00:33;;;;;;;19.08;17.17;;;13.00;99.90;;;;;;2088469;28;20071;-69
2021/10/07 02:01:35;;;;;;;19.00;16.02;;;13.00;99.90;;;;;;2089481;28;20469;-69
2021/10/07 02:02:35;;;;;;;17.17;15.43;;;12.90;99.90;;;;;;2089794;28;20021;-69
2021/10/07 02:03:36;;;;;;;17.85;16.05;;;12.90;99.90;;;;;;2089719;28;20025;-69
2021/10/07 02:04:36;;;;;;;15.68;14.07;;;12.90;99.90;;;;;;2089820;28;20021;-69
2021/10/07 02:05:37;;;;;;;16.02;13.30;;;12.90;99.90;;;;;;2088663;28;20021;-69
2021/10/07 02:06:37;;;;;;;11.90;10.70;;;12.90;99.90;;;;;;2080757;28;20544;-69
2021/10/07 02:07:38;;;;;;;15.98;13.38;;;12.80;99.90;;;;;;2081662;28;20033;-69
2021/10/07 02:08:39;;;;;;;15.77;14.07;;;12.90;99.90;;;;;;2081008;28;20025;-69
2021/10/07 02:09:39;;;;;;;19.05;14.00;;;12.80;99.90;;;;;;2080904;28;20532;-69
2021/10/07 02:10:40;;;;;;;18.75;16.75;;;12.80;99.90;;;;;;2081131;28;20053;-69
2021/10/07 02:11:40;;;;;;;20.05;18.00;;;12.80;99.90;;;;;;2081536;28;20025;-69
2021/10/07 02:12:44;;;;;;;18.52;16.73;;;12.80;99.90;;;;;;2084057;28;20025;-69
2021/10/07 02:13:45;;;;;;;17.85;16.08;;;12.70;99.90;;;;;;2082743;28;20033;-69
2021/10/07 02:14:45;;;;;;;14.35;12.80;;;12.70;99.90;;;;;;2086919;28;20036;-69
2021/10/07 02:15:46;;;;;;;13.82;12.40;;;12.70;99.90;;;;;;2085126;28;20589;-69
2021/10/07 02:16:46;;;;;;;13.38;12.07;;;12.70;99.90;;;;;;2081520;28;20026;-69
2021/10/07 02:17:47;;;;;;;13.73;12.43;;;12.70;99.90;;;;;;2081419;28;20551;-69
2021/10/07 02:18:47;;;;;;;12.60;11.30;;;12.60;99.90;;;;;;2080619;28;20035;-69
2021/10/07 02:19:48;;;;;;;15.07;12.85;;;12.60;99.90;;;;;;2081448;28;20053;-69
2021/10/07 02:20:48;;;;;;;14.25;12.57;;;12.60;99.90;;;;;;2080807;28;20025;-69
2021/10/07 02:21:49;;;;;;;12.57;11.38;;;12.60;99.90;;;;;;2081415;28;20102;-69
2021/10/07 02:22:49;;;;;;;10.85;9.95;;;12.60;99.90;;;;;;2081021;28;20029;-69
2021/10/07 02:23:50;;;;;;;11.98;10.82;;;12.50;99.90;;;;;;2082807;28;20497;-69
2021/10/07 02:24:51;;;;;;;12.00;10.80;;;12.50;99.90;;;;;;2083677;28;20025;-69
2021/10/07 02:25:51;;;;;;;12.88;11.57;;;12.50;99.90;;;;;;2087130;28;20507;-69
2021/10/07 02:26:52;;;;;;;13.07;10.50;;;12.40;99.90;;;;;;2087646;28;20029;-69
2021/10/07 02:27:52;;;;;;;12.85;11.55;;;12.40;99.90;;;;;;2088234;28;20446;-69
2021/10/07 02:28:53;;;;;;;12.50;10.98;;;12.40;99.90;;;;;;2083734;28;20025;-69
2021/10/07 02:29:54;;;;;;;14.95;13.45;;;12.40;99.90;;;;;;2083972;28;20382;-69
2021/10/07 02:30:57;;;;;;;24.00;16.08;;;12.40;99.90;;;;;;2088255;28;20029;-69
2021/10/07 02:31:58;;;;;;;16.75;13.82;;;12.30;99.90;;;;;;2086004;28;20035;-69
2021/10/07 02:32:58;;;;;;;15.63;14.07;;;12.30;99.90;;;;;;2081050;28;20026;-69
2021/10/07 02:33:59;;;;;;;14.10;12.60;;;12.30;99.90;;;;;;2082712;28;20045;-69
2021/10/07 02:35:00;;;;;;;13.75;12.20;;;12.30;99.90;;;;;;2087595;28;20021;-69
2021/10/07 02:36:00;;;;;;;13.10;11.70;;;12.30;99.90;;;;;;2085318;28;20021;-69
2021/10/07 02:37:01;;;;;;;12.05;10.05;;;12.30;99.90;;;;;;2084245;28;20025;-69
2021/10/07 02:38:04;;;;;;;11.82;10.52;;;12.20;99.90;;;;;;2088721;28;20574;-69
2021/10/07 02:39:04;;;;;;;14.15;11.68;;;12.20;99.90;;;;;;2089198;28;20056;-70
2021/10/07 02:40:06;;;;;;;15.02;13.52;;;12.20;99.90;;;;;;2085872;28;20029;-70
2021/10/07 02:41:07;;;;;;;17.58;15.25;;;12.20;99.90;;;;;;2081002;28;20044;-69
2021/10/07 02:42:08;;;;;;;14.70;13.20;;;12.20;99.90;;;;;;2081188;28;20037;-69
2021/10/07 02:43:08;;;;;;;16.48;14.35;;;12.10;99.90;;;;;;2085502;28;20017;-69
2021/10/07 02:44:09;;;;;;;16.10;14.40;;;12.10;99.90;;;;;;2082277;28;20082;-69
2021/10/07 02:45:11;;;;;;;15.43;13.93;;;12.10;99.90;;;;;;2081931;28;20049;-69
2021/10/07 02:46:12;;;;;;;15.75;14.18;;;12.10;99.90;;;;;;2080853;28;20013;-69
2021/10/07 02:47:13;;;;;;;18.92;16.92;;;12.10;99.90;;;;;;2081473;28;20043;-69
2021/10/07 02:48:14;;;;;;;16.30;14.60;;;12.10;99.90;;;;;;2079773;28;20021;-69
2021/10/07 02:49:14;;;;;;;14.85;13.25;;;12.10;99.90;;;;;;2080490;28;20030;-69
2021/10/07 02:50:15;;;;;;;16.67;14.48;;;12.10;99.90;;;;;;2080835;28;20056;-69
2021/10/07 02:51:17;;;;;;;16.58;14.10;;;12.10;99.90;;;;;;2080560;28;20025;-69
2021/10/07 02:52:17;;;;;;;17.23;15.43;;;12.10;99.90;;;;;;2083735;28;20702;-70
2021/10/07 02:53:18;;;;;;;20.27;17.17;;;12.10;99.90;;;;;;2083773;28;20022;-70
2021/10/07 02:54:18;;;;;;;19.42;17.33;;;12.10;99.90;;;;;;2080933;28;20029;-69
2021/10/07 02:55:19;;;;;;;19.42;17.38;;;12.10;99.90;;;;;;2081202;28;20381;-69
2021/10/07 02:56:19;;;;;;;20.23;16.83;;;12.10;99.90;;;;;;2080878;28;20017;-69
2021/10/07 02:57:20;;;;;;;20.40;18.25;;;12.10;99.90;;;;;;2084496;28;20465;-69
2021/10/07 02:58:20;;;;;;;17.17;15.45;;;12.10;99.90;;;;;;2081635;28;20033;-69
2021/10/07 02:59:21;;;;;;;16.70;15.07;;;12.10;99.90;;;;;;2085254;28;20036;-69
2021/10/07 03:00:22;;;;;;;16.75;15.05;;;12.10;99.90;;;;;;2088687;28;20483;-69
2021/10/07 03:01:25;;;;;;;22.63;16.65;;;12.10;99.90;;;;;;2087964;28;20033;-69
2021/10/07 03:02:26;;;;;;;17.52;15.63;;;12.10;99.90;;;;;;2088030;28;20021;-69
2021/10/07 03:03:26;;;;;;;18.48;16.38;;;12.10;99.90;;;;;;2088363;28;20032;-69
2021/10/07 03:04:27;;;;;;;18.77;15.40;;;12.10;99.90;;;;;;2088222;28;20048;-69
2021/10/07 03:05:28;;;;;;;18.58;14.93;;;12.10;99.90;;;;;;2088583;28;20533;-71
2021/10/07 03:06:28;;;;;;;22.23;15.60;;;12.10;99.90;;;;;;2082362;28;20029;-70
2021/10/07 03:07:29;;;;;;;18.13;15.35;;;12.20;99.90;;;;;;2079475;28;20044;-70
2021/10/07 03:08:29;;;;;;;21.20;15.70;;;12.20;99.90;;;;;;2078885;28;20124;-69
2021/10/07 03:09:30;;;;;;;18.33;15.32;;;12.20;99.90;;;;;;2085742;28;20103;-69
2021/10/07 03:10:31;;;;;;;18.50;15.23;;;12.20;99.90;;;;;;2087120;28;20425;-69
2021/10/07 03:11:31;;;;;;;23.63;18.63;;;12.20;99.90;;;;;;2079332;28;20036;-69
2021/10/07 03:12:32;;;;;;;22.70;17.50;;;12.20;99.90;;;;;;2079610;28;20033;-69
2021/10/07 03:13:33;;;;;;;19.92;15.13;;;12.20;99.90;;;;;;2080174;28;20104;-69
2021/10/07 03:14:34;;;;;;;24.25;17.10;;;12.20;99.90;;;;;;2079509;28;20029;-69
2021/10/07 03:15:35;;;;;;;23.58;16.65;;;12.30;99.90;;;;;;2079793;28;20051;-69
2021/10/07 03:16:35;;;;;;;24.65;18.48;;;12.30;99.90;;;;;;2079574;28;20025;-69
2021/10/07 03:17:37;;;;;;;25.83;19.95;;;12.30;99.90;;;;;;2084191;28;20053;-69
2021/10/07 03:18:37;;;;;;;23.38;15.38;;;12.30;99.90;;;;;;2086623;28;20025;-69
2021/10/07 03:19:39;;;;;;;26.02;19.27;;;12.30;99.90;;;;;;2079949;28;20037;-69
2021/10/07 03:20:39;;;;;;;21.60;15.57;;;12.30;99.90;;;;;;2079885;28;20030;-69
2021/10/07 03:21:40;;;;;;;26.08;18.27;;;12.40;99.90;;;;;;2079268;28;20033;-69
2021/10/07 03:22:41;;;;;;;26.17;18.77;;;12.30;99.90;;;;;;2079538;28;20098;-69
2021/10/07 03:23:41;;;;;;;26.00;18.63;;;12.40;99.90;;;;;;2079691;28;20026;-69
2021/10/07 03:24:43;;;;;;;25.08;19.38;;;12.40;99.90;;;;;;2079868;28;20478;-70
2021/10/07 03:25:43;;;;;;;27.05;19.58;;;12.40;99.90;;;;;;2079331;28;20029;-69
2021/10/07 03:26:44;;;;;;;28.73;19.95;;;12.40;99.90;;;;;;2079773;28;20049;-69
2021/10/07 03:27:45;;;;;;;22.25;14.82;;;12.40;99.90;;;;;;2079775;28;20029;-69
2021/10/07 03:28:45;;;;;;;39.28;21.50;;;12.40;99.90;;;;;;2079095;28;20028;-69
2021/10/07 03:29:46;;;;;;;22.92;17.50;;;12.50;99.90;;;;;;2079507;28;20501;-69
2021/10/07 03:30:46;;;;;;;24.73;19.77;;;12.50;99.90;;;;;;2085619;28;20029;-69
2021/10/07 03:31:47;;;;;;;29.80;19.20;;;12.50;99.90;;;;;;2085247;28;20493;-69
2021/10/07 03:32:47;;;;;;;32.30;21.45;;;12.50;99.90;;;;;;2079236;28;20100;-69
2021/10/07 03:33:48;;;;;;;32.33;21.58;;;12.50;99.90;;;;;;2084716;28;20082;-69
2021/10/07 03:34:48;;;;;;;23.52;18.17;;;12.50;99.90;;;;;;2086594;28;20083;-70
2021/10/07 03:35:49;;;;;;;29.80;21.00;;;12.50;99.90;;;;;;2078506;28;20084;-69
2021/10/07 03:36:50;;;;;;;27.48;19.75;;;12.50;99.90;;;;;;2082244;28;20057;-69
2021/10/07 03:37:50;;;;;;;31.65;23.45;;;12.60;99.90;;;;;;2087140;28;20060;-69
2021/10/07 03:38:51;;;;;;;34.30;25.83;;;12.60;99.90;;;;;;2082759;28;20108;-69
2021/10/07 03:39:51;;;;;;;29.73;22.30;;;12.60;99.90;;;;;;2081221;28;20104;-70
2021/10/07 03:40:52;;;;;;;31.58;24.48;;;12.60;99.90;;;;;;2081291;28;20025;-70
2021/10/07 03:41:52;;;;;;;30.77;25.08;;;12.60;99.90;;;;;;2081197;28;20091;-70
2021/10/07 03:42:53;;;;;;;49.53;28.55;;;12.60;99.90;;;;;;2081736;28;20025;-69
2021/10/07 03:43:54;;;;;;;30.17;24.45;;;12.60;99.90;;;;;;2081301;28;20407;-69
2021/10/07 03:44:55;;;;;;;39.83;26.33;;;12.60;99.90;;;;;;2082463;28;20028;-70
2021/10/07 03:45:55;;;;;;;101.72;32.92;;;12.70;99.90;;;;;;2081296;28;20026;-69
2021/10/07 03:46:56;;;;;;;64.47;29.35;;;12.70;99.90;;;;;;2080470;28;20466;-70
2021/10/07 03:47:57;;;;;;;48.85;30.38;;;12.70;99.90;;;;;;2085897;28;20021;-70
2021/10/07 03:48:58;;;;;;;164.30;35.65;;;12.70;99.90;;;;;;2089309;28;20025;-70
2021/10/07 03:49:59;;;;;;;61.08;30.67;;;12.70;99.90;;;;;;2084049;28;20105;-69
2021/10/07 03:50:59;;;;;;;38.70;27.05;;;12.70;99.90;;;;;;2086015;28;20029;-69
2021/10/07 03:52:01;;;;;;;41.05;27.90;;;12.70;99.90;;;;;;2088809;28;20025;-69
2021/10/07 03:53:02;;;;;;;60.83;28.23;;;12.70;99.90;;;;;;2089489;28;20043;-69
2021/10/07 03:54:02;;;;;;;44.40;27.83;;;12.70;99.90;;;;;;2089512;28;20104;-69
2021/10/07 03:55:03;;;;;;;48.25;29.27;;;12.70;99.90;;;;;;2089579;28;20115;-70
2021/10/07 03:56:04;;;;;;;32.90;26.02;;;12.70;99.90;;;;;;2089207;28;20409;-70
2021/10/07 03:57:04;;;;;;;39.35;27.30;;;12.80;99.90;;;;;;2087178;28;20021;-70
2021/10/07 03:58:05;;;;;;;32.83;26.30;;;12.80;99.90;;;;;;2088359;28;20021;-69
2021/10/07 03:59:06;;;;;;;32.50;26.25;;;12.80;99.90;;;;;;2089083;28;20044;-69
2021/10/07 04:00:08;;;;;;;32.22;23.40;;;12.70;99.90;;;;;;2081999;28;20524;-69
2021/10/07 04:01:09;;;;;;;42.05;29.35;;;12.80;99.90;;;;;;2086363;28;20021;-70
2021/10/07 04:02:09;;;;;;;31.15;23.65;;;12.80;99.90;;;;;;2080596;28;20036;-70
2021/10/07 04:03:10;;;;;;;35.03;22.88;;;12.80;99.90;;;;;;2084482;28;20021;-69
2021/10/07 04:04:10;;;;;;;34.08;26.20;;;12.80;99.90;;;;;;2088297;28;20036;-70
2021/10/07 04:05:11;;;;;;;39.00;29.30;;;12.80;99.90;;;;;;2081125;28;20044;-70
2021/10/07 04:06:11;;;;;;;32.38;26.35;;;12.80;99.90;;;;;;2080803;28;20028;-70
2021/10/07 04:07:12;;;;;;;31.88;23.77;;;12.80;99.90;;;;;;2081162;28;20445;-70
2021/10/07 04:08:13;;;;;;;29.10;24.40;;;12.80;99.90;;;;;;2080415;28;20026;-69
2021/10/07 04:09:14;;;;;;;38.60;26.65;;;12.90;99.90;;;;;;2081141;28;20025;-69
2021/10/07 04:10:14;;;;;;;37.53;28.02;;;12.90;99.90;;;;;;2081237;28;20061;-70
2021/10/07 04:11:15;;;;;;;35.33;28.48;;;12.90;99.90;;;;;;2081173;28;20423;-69
2021/10/07 04:12:16;;;;;;;36.00;27.90;;;12.90;99.90;;;;;;2082801;28;20493;-69
2021/10/07 04:13:24;;;;;;;40.83;29.38;;;12.90;99.90;;;;;;2089547;28;20108;-70
2021/10/07 04:14:24;;;;;;;45.22;29.35;;;12.90;99.90;;;;;;2089429;28;20067;-70
2021/10/07 04:15:25;;;;;;;40.42;28.25;;;12.90;99.90;;;;;;2089537;28;20025;-70
2021/10/07 04:16:26;;;;;;;41.13;27.50;;;12.90;99.90;;;;;;2089163;28;20023;-70
2021/10/07 04:17:27;;;;;;;32.42;23.55;;;12.90;99.90;;;;;;2080735;28;20029;-70
2021/10/07 04:18:27;;;;;;;32.60;26.52;;;12.90;99.90;;;;;;2080385;28;20513;-70
2021/10/07 04:19:28;;;;;;;30.52;23.75;;;12.90;99.90;;;;;;2080737;28;20355;-70
2021/10/07 04:20:28;;;;;;;29.75;23.60;;;12.90;99.90;;;;;;2083701;28;20068;-70
2021/10/07 04:21:29;;;;;;;32.55;24.55;;;12.90;99.90;;;;;;2084443;28;20024;-69
2021/10/07 04:22:29;;;;;;;33.38;26.83;;;12.90;99.90;;;;;;2087038;28;20052;-70
2021/10/07 04:23:30;;;;;;;32.30;25.55;;;12.90;99.90;;;;;;2088358;28;20471;-70
2021/10/07 04:24:31;;;;;;;30.05;23.20;;;12.90;99.90;;;;;;2080448;28;20092;-70
2021/10/07 04:25:31;;;;;;;32.10;25.45;;;12.90;99.90;;;;;;2081028;28;20389;-70
2021/10/07 04:26:32;;;;;;;29.15;22.80;;;13.00;99.90;;;;;;2089428;28;20025;-70
2021/10/07 04:27:34;;;;;;;33.78;26.48;;;13.00;99.90;;;;;;2081486;28;20470;-70
2021/10/07 04:28:35;;;;;;;29.98;23.73;;;13.00;99.90;;;;;;2080950;28;20065;-70
2021/10/07 04:29:35;;;;;;;32.80;25.75;;;13.00;99.90;;;;;;2085085;28;20063;-70
2021/10/07 04:30:37;;;;;;;29.35;22.85;;;13.00;99.90;;;;;;2086709;28;20037;-70
2021/10/07 04:31:38;;;;;;;26.75;21.35;;;13.00;99.90;;;;;;2088269;28;20041;-69
2021/10/07 04:32:38;;;;;;;30.15;25.25;;;13.00;99.90;;;;;;2085371;28;20029;-69
2021/10/07 04:33:39;;;;;;;31.77;25.17;;;13.00;99.90;;;;;;2083446;28;20017;-69
2021/10/07 04:34:40;;;;;;;30.70;24.17;;;13.00;99.90;;;;;;2088157;28;20033;-70
2021/10/07 04:35:40;;;;;;;29.13;22.50;;;13.00;99.90;;;;;;2082749;28;20061;-70
2021/10/07 04:36:42;;;;;;;32.42;26.65;;;13.00;99.90;;;;;;2082606;28;20041;-69
2021/10/07 04:37:42;;;;;;;31.90;25.48;;;13.00;99.90;;;;;;2087482;28;20046;-69
2021/10/07 04:38:43;;;;;;;36.00;28.75;;;13.00;99.90;;;;;;2083016;28;20047;-70
2021/10/07 04:39:43;;;;;;;33.63;25.73;;;13.00;99.90;;;;;;2087081;28;20468;-70
2021/10/07 04:40:44;;;;;;;36.50;28.60;;;13.10;99.90;;;;;;2085105;28;20103;-70
2021/10/07 04:41:45;;;;;;;26.42;19.83;;;13.10;99.90;;;;;;2084632;28;20013;-70
2021/10/07 04:42:45;;;;;;;31.55;24.13;;;13.10;99.90;;;;;;2086299;28;20021;-70
2021/10/07 04:43:46;;;;;;;32.75;23.88;;;13.10;99.90;;;;;;2088221;28;20020;-70
2021/10/07 04:44:46;;;;;;;30.55;23.90;;;13.10;99.90;;;;;;2086591;28;20026;-70
2021/10/07 04:45:47;;;;;;;32.00;26.08;;;13.10;99.90;;;;;;2086512;28;20134;-70
2021/10/07 04:46:47;;;;;;;39.20;29.42;;;13.10;99.90;;;;;;2085645;28;20119;-70
2021/10/07 04:47:48;;;;;;;50.40;30.33;;;13.10;99.90;;;;;;2086235;28;20021;-70
2021/10/07 04:48:49;;;;;;;41.17;26.55;;;13.10;99.90;;;;;;2085239;28;20078;-70
2021/10/07 04:49:50;;;;;;;32.10;26.00;;;13.10;99.90;;;;;;2084217;28;20068;-70
2021/10/07 04:50:50;;;;;;;33.60;25.48;;;13.10;99.90;;;;;;2085225;28;20021;-70
2021/10/07 04:51:51;;;;;;;30.73;25.85;;;13.10;99.90;;;;;;2087238;28;20033;-70
2021/10/07 04:52:51;;;;;;;29.05;23.13;;;13.10;99.90;;;;;;2081702;28;20025;-70
2021/10/07 04:53:52;;;;;;;30.70;24.08;;;13.10;99.90;;;;;;2082242;28;20052;-70
2021/10/07 04:54:52;;;;;;;28.25;22.52;;;13.10;99.90;;;;;;2082660;28;20055;-70
2021/10/07 04:55:56;;;;;;;45.03;22.25;;;13.10;99.90;;;;;;2082404;28;20030;-70
2021/10/07 04:56:57;;;;;;;35.72;24.45;;;13.10;99.90;;;;;;2082968;28;20025;-70
2021/10/07 04:57:57;;;;;;;33.78;23.30;;;13.10;99.90;;;;;;2084599;28;20104;-70
2021/10/07 04:58:58;;;;;;;35.65;23.42;;;13.10;99.90;;;;;;2081809;28;20705;-70
2021/10/07 04:59:58;;;;;;;29.92;24.80;;;13.10;99.90;;;;;;2084386;28;20096;-70
2021/10/07 05:00:59;;;;;;;34.22;24.88;;;13.10;99.90;;;;;;2084400;28;20090;-70
2021/10/07 05:01:59;;;;;;;37.97;25.25;;;13.10;99.90;;;;;;2081917;28;20021;-70
2021/10/07 05:03:00;;;;;;;41.20;26.67;;;13.10;99.90;;;;;;2080527;28;20049;-70
2021/10/07 05:04:02;;;;;;;35.70;25.35;;;13.10;99.90;;;;;;2082257;28;20029;-70
2021/10/07 05:05:05;;;;;;;31.85;25.88;;;13.10;99.90;;;;;;2080756;28;20335;-70
2021/10/07 05:06:05;;;;;;;29.48;23.15;;;13.10;99.90;;;;;;2084123;28;20461;-70
2021/10/07 05:07:06;;;;;;;30.83;24.77;;;13.10;99.90;;;;;;2081398;28;20351;-70
2021/10/07 05:08:07;;;;;;;40.33;24.25;;;13.10;99.90;;;;;;2081393;28;20013;-70
2021/10/07 05:09:07;;;;;;;29.55;21.70;;;13.10;99.90;;;;;;2082011;28;20029;-70
2021/10/07 05:10:11;;;;;;;32.05;22.33;;;13.10;99.90;;;;;;2081894;28;20533;-70
2021/10/07 05:11:11;;;;;;;29.92;25.60;;;13.10;99.90;;;;;;2086578;28;20021;-70
2021/10/07 05:12:12;;;;;;;45.60;27.50;;;13.10;99.90;;;;;;2081255;28;20025;-70
2021/10/07 05:13:13;;;;;;;57.55;27.02;;;13.10;99.90;;;;;;2081213;28;20022;-70